Terminal Aerodrome Forecast
Issued by NWS

Home | Current Version | Previous Version | Text Only | Print | Product List | Glossary On
Versions: 1 2 3 4 5 6 7 8 9 10 11 12 13
000
FTUS46 KPDT 010208 AAA
TAFDLS
TAF AMD
KDLS 010208Z 0102/0124 27015G25KT P6SM FEW300
     FM010700 31008G15KT P6SM SKC
     FM011000 31007KT P6SM FEW300
     FM012000 33012KT P6SM FEW180 SCT250=

USA.gov is the U.S. government's official web portal to all federal, state and local government web resources and services.